createdAt,value
2018-12-03T00:09:25.584Z,-2.43
2018-12-03T00:24:29.576Z,-2.23
2018-12-03T00:39:32.630Z,-2.47
2018-12-03T00:54:35.593Z,-2.65
2018-12-03T01:09:38.674Z,-2.66
2018-12-03T01:24:41.640Z,-2.66
2018-12-03T01:39:44.678Z,-2.71
2018-12-03T01:54:47.678Z,-2.39
2018-12-03T02:09:50.580Z,-3.01
2018-12-03T02:24:53.399Z,-2.87
2018-12-03T02:39:56.114Z,-2.61
2018-12-03T02:54:58.812Z,-2.42
2018-12-03T03:10:01.519Z,-2.78
2018-12-03T03:25:04.717Z,-3.02
2018-12-03T03:40:07.842Z,-3.04
2018-12-03T03:55:10.800Z,-2.95
2018-12-03T04:10:13.581Z,-3.04
2018-12-03T04:25:17.051Z,-3.20
2018-12-03T04:40:20.038Z,-3.83
2018-12-03T04:55:22.796Z,-3.97
2018-12-03T05:10:26.275Z,-3.36
2018-12-03T05:25:29.965Z,-3.37
2018-12-03T05:40:33.040Z,-3.50
2018-12-03T05:55:35.737Z,-3.70
2018-12-03T06:10:38.556Z,-3.53
2018-12-03T06:25:41.253Z,-2.75
2018-12-03T06:40:44.186Z,-0.31
2018-12-03T06:55:46.890Z,2.52
2018-12-03T07:10:49.581Z,1.21
2018-12-03T07:25:52.588Z,-1.23
2018-12-03T07:40:56.173Z,-1.19
2018-12-03T07:55:58.881Z,-1.18
2018-12-03T08:11:01.904Z,-0.55
2018-12-03T08:26:05.593Z,-0.19
2018-12-03T08:41:09.801Z,0.41
2018-12-03T08:56:12.579Z,0.81
2018-12-03T09:11:15.649Z,2.20
2018-12-03T09:26:19.420Z,5.19
2018-12-03T09:41:22.897Z,5.10
2018-12-03T09:56:27.502Z,5.08
2018-12-03T10:11:30.181Z,4.74
2018-12-03T10:26:32.971Z,4.50
2018-12-03T10:41:35.692Z,4.44
2018-12-03T10:56:39.479Z,5.43
2018-12-03T11:11:46.849Z,5.76
2018-12-03T11:26:50.224Z,8.53
2018-12-03T11:41:53.203Z,8.53
2018-12-03T11:56:55.900Z,8.18
2018-12-03T12:11:59.618Z,8.18
2018-12-03T12:27:02.504Z,8.61
2018-12-03T12:42:07.537Z,8.61
2018-12-03T12:57:10.491Z,7.49
2018-12-03T13:12:14.184Z,6.77
2018-12-03T13:27:18.494Z,5.39
2018-12-03T13:42:22.985Z,4.30
2018-12-03T13:57:26.664Z,3.35
2018-12-03T14:12:29.394Z,2.67
2018-12-03T14:27:32.190Z,1.82
2018-12-03T14:42:36.604Z,1.34
2018-12-03T14:57:40.100Z,0.63
2018-12-03T15:12:44.462Z,0.16
2018-12-03T15:27:48.086Z,-0.21
2018-12-03T15:42:51.697Z,-0.39
2018-12-03T15:57:55.190Z,-0.60
2018-12-03T16:12:59.854Z,-0.39
2018-12-03T16:28:03.338Z,-0.51
2018-12-03T16:43:06.928Z,-0.57
2018-12-03T16:58:10.523Z,-0.61
2018-12-03T17:13:13.229Z,-0.89
2018-12-03T17:28:16.988Z,-0.81
2018-12-03T17:43:20.037Z,-0.91
2018-12-03T17:58:24.429Z,-1.02
2018-12-03T18:13:28.138Z,-1.26
2018-12-03T18:28:31.194Z,-1.75
2018-12-03T18:43:34.875Z,-1.56
2018-12-03T18:58:40.314Z,-1.50
2018-12-03T19:13:43.131Z,-1.47
2018-12-03T19:28:47.976Z,-1.66
2018-12-03T19:43:51.163Z,-2.20
2018-12-03T19:58:54.958Z,-2.22
2018-12-03T20:13:57.906Z,-2.01
2018-12-03T20:29:02.009Z,-2.05
2018-12-03T20:44:08.557Z,-2.18
2018-12-03T20:59:11.723Z,-2.06
2018-12-03T21:14:19.968Z,-2.24
2018-12-03T21:29:21.057Z,-2.51
2018-12-03T21:44:24.617Z,-2.90
2018-12-03T21:59:28.268Z,-3.05
2018-12-03T22:14:31.280Z,-2.50
2018-12-03T22:29:34.258Z,-2.50
2018-12-03T22:45:18.564Z,-2.38
2018-12-03T23:00:29.523Z,-1.90
2018-12-03T23:15:32.238Z,-1.72
2018-12-03T23:30:37.296Z,-1.92
2018-12-03T23:45:40.877Z,-2.28
